Malad City, ID

5:35 PM MST on December 26, 2014 (GMT -0700)
Middle of city block | Change Station
CLOSE
Current Station
Personal Weather Station
Location: Malad City, ID
Elevation: 4662 ft
Nearby Weather Stations
Active Advisory: Winter Weather Advisory

Elev 4662 ft 42.20 °N, 112.26 °W | Updated 30 seconds ago

Partly Cloudy
Partly Cloudy
21.8 °F
Feels Like 14 °F
N
6.0
Wind Variable Wind from NNE
Gusts 10.0 mph

Today
High -- | Low -- °F
--% Chance of Precip.
Yesterday
High -- | Low -- °F
Precip. -- in
7:56 AM 5:03 PM
Waxing Crescent, 30% visible
Pressure 30.12 in
Visibility 10.0 miles
Clouds Clear
Windchill 14 °F
Dew Point 18 °F
Humidity 83%
Rainfall 0.00 in
Snow Depth Not available.
UV 0 out of 12
Pollen .10 out of 12
Air Quality Not available.
Flu Activity Not available.
SPECI KLGU 270030Z AUTO 00000KT 10SM CLR M10/M12 A3012 RMK AO2 T11001117

More Conditions Fewer Conditions

Pressure 30.12 in
Visibility 10.0 miles
Clouds Clear
Windchill 14 °F
Dew Point 18 °F
Humidity 83%
Rainfall 0.00 in
Snow Depth Not available.
UV 0 out of 12
Pollen .10 out of 12
Air Quality Not available.
Flu Activity Not available.
SPECI KLGU 270030Z AUTO 00000KT 10SM CLR M10/M12 A3012 RMK AO2 T11001117

More Conditions Fewer Conditions

10-Day Weather Forecast

Almanac

Astronomy

Dec. 26, 2014 Rise Set
Actual Time
Civil Twilight
Nautical Twilight
Astronomical Twilight
Moon
Length of Visible Light
Length of Day
Tomorrow will be .
, % of the Moon is Illuminated

Today's Extremes

State Highs State Lows

Community

WunderPhotos

Upload Photos

1,780,795 photos uploaded!

WunderBlogs® & News

Nearby

Air Quality

  Air Quality AQ Index Pollutant
Not available.

Snow Depth

Station Depth Elevation

Earthquake Activity

City Distance Mag. Time & Date
Minimum magnitude displayed is 2.5.

Coastal Water Temperatures

Place Temperature

Nearby Weather Stations